sensor_id;sensor_type;location;lat;lon;timestamp;pressure;altitude;pressure_sealevel;temperature;humidity
7668;BME280;3876;42.204;24.686;2023-02-20T09:07:43;99910.78;;;16.94;34.79
7668;BME280;3876;42.204;24.686;2023-02-20T09:10:11;99906.28;;;16.97;34.43
7668;BME280;3876;42.204;24.686;2023-02-20T09:12:38;99901.03;;;16.99;34.48
7668;BME280;3876;42.204;24.686;2023-02-20T09:15:07;99908.34;;;16.91;34.10
7668;BME280;3876;42.204;24.686;2023-02-20T09:17:38;99899.94;;;16.86;34.72
7668;BME280;3876;42.204;24.686;2023-02-20T09:20:07;99895.56;;;17.05;34.54
7668;BME280;3876;42.204;24.686;2023-02-20T09:22:35;99891.75;;;17.12;33.61
7668;BME280;3876;42.204;24.686;2023-02-20T09:25:09;99893.91;;;17.21;32.76
7668;BME280;3876;42.204;24.686;2023-02-20T09:27:37;99903.13;;;17.26;32.38
7668;BME280;3876;42.204;24.686;2023-02-20T09:30:06;99901.06;;;17.33;32.71
7668;BME280;3876;42.204;24.686;2023-02-20T09:32:41;99895.56;;;17.39;32.00
7668;BME280;3876;42.204;24.686;2023-02-20T09:35:09;99887.34;;;17.31;31.44
7668;BME280;3876;42.204;24.686;2023-02-20T09:37:42;99901.22;;;17.30;31.67
7668;BME280;3876;42.204;24.686;2023-02-20T09:40:12;99887.19;;;17.34;30.55
7668;BME280;3876;42.204;24.686;2023-02-20T09:42:48;99900.28;;;17.48;30.25
7668;BME280;3876;42.204;24.686;2023-02-20T09:45:23;99878.28;;;17.57;30.76
7668;BME280;3876;42.204;24.686;2023-02-20T09:47:59;99888.34;;;17.63;31.06
7668;BME280;3876;42.204;24.686;2023-02-20T09:50:34;99897.41;;;17.54;30.58
7668;BME280;3876;42.204;24.686;2023-02-20T09:53:06;99891.16;;;17.58;28.79
7668;BME280;3876;42.204;24.686;2023-02-20T09:55:40;99890.56;;;17.70;28.96
7668;BME280;3876;42.204;24.686;2023-02-20T09:58:15;99890.84;;;17.64;27.92
7668;BME280;3876;42.204;24.686;2023-02-20T10:00:44;99894.53;;;17.60;27.03
7668;BME280;3876;42.204;24.686;2023-02-20T10:03:18;99895.88;;;17.67;26.55
7668;BME280;3876;42.204;24.686;2023-02-20T10:05:51;99901.84;;;17.69;26.23
7668;BME280;3876;42.204;24.686;2023-02-20T10:08:20;99909.78;;;17.66;27.09
7668;BME280;3876;42.204;24.686;2023-02-20T10:10:50;99910.13;;;17.76;26.71
7668;BME280;3876;42.204;24.686;2023-02-20T10:13:38;99901.34;;;17.78;26.93
7668;BME280;3876;42.204;24.686;2023-02-20T10:16:18;99908.97;;;17.81;27.15
7668;BME280;3876;42.204;24.686;2023-02-20T10:18:57;99898.13;;;17.91;26.72
7668;BME280;3876;42.204;24.686;2023-02-20T10:21:37;99908.81;;;17.84;27.00
7668;BME280;3876;42.204;24.686;2023-02-20T10:24:21;99905.31;;;17.86;27.18
7668;BME280;3876;42.204;24.686;2023-02-20T10:26:54;99923.22;;;17.90;26.17
7668;BME280;3876;42.204;24.686;2023-02-20T10:29:26;99919.03;;;17.88;26.40
7668;BME280;3876;42.204;24.686;2023-02-20T10:32:00;99919.56;;;17.94;26.54
7668;BME280;3876;42.204;24.686;2023-02-20T10:34:30;99914.81;;;18.02;27.67
7668;BME280;3876;42.204;24.686;2023-02-20T10:37:05;99926.56;;;18.09;26.32
7668;BME280;3876;42.204;24.686;2023-02-20T10:39:34;99909.53;;;18.04;25.76
7668;BME280;3876;42.204;24.686;2023-02-20T10:42:09;99884.53;;;18.18;27.16
7668;BME280;3876;42.204;24.686;2023-02-20T10:44:41;99894.16;;;18.16;26.56
7668;BME280;3876;42.204;24.686;2023-02-20T10:47:16;99895.31;;;18.11;26.31
7668;BME280;3876;42.204;24.686;2023-02-20T10:49:50;99889.81;;;18.17;26.69
7668;BME280;3876;42.204;24.686;2023-02-20T10:52:22;99830.34;;;17.97;27.21
7668;BME280;3876;42.204;24.686;2023-02-20T10:54:56;99892.34;;;18.34;26.62
7668;BME280;3876;42.204;24.686;2023-02-20T10:57:35;99885.91;;;18.41;26.61
7668;BME280;3876;42.204;24.686;2023-02-20T11:00:08;99885.47;;;18.33;26.31
7668;BME280;3876;42.204;24.686;2023-02-20T11:02:40;99879.38;;;18.34;26.55
7668;BME280;3876;42.204;24.686;2023-02-20T11:05:12;99892.50;;;18.31;25.82
7668;BME280;3876;42.204;24.686;2023-02-20T11:07:40;99889.97;;;18.29;26.27
7668;BME280;3876;42.204;24.686;2023-02-20T11:10:07;99878.41;;;18.19;25.25
7668;BME280;3876;42.204;24.686;2023-02-20T11:12:39;99885.47;;;18.33;26.55
7668;BME280;3876;42.204;24.686;2023-02-20T11:15:11;99882.97;;;18.47;26.68
7668;BME280;3876;42.204;24.686;2023-02-20T11:17:43;99879.59;;;18.45;26.16
7668;BME280;3876;42.204;24.686;2023-02-20T11:20:42;99880.09;;;18.36;24.59
7668;BME280;3876;42.204;24.686;2023-02-20T11:23:36;99870.22;;;18.27;25.64
7668;BME280;3876;42.204;24.686;2023-02-20T11:26:23;99866.72;;;18.28;25.39
7668;BME280;3876;42.204;24.686;2023-02-20T11:28:56;99866.03;;;18.40;25.45
7668;BME280;3876;42.204;24.686;2023-02-20T11:31:25;99853.13;;;18.23;25.50
7668;BME280;3876;42.204;24.686;2023-02-20T11:33:53;99886.97;;;18.37;25.63
7668;BME280;3876;42.204;24.686;2023-02-20T11:36:23;99880.78;;;18.40;25.33
7668;BME280;3876;42.204;24.686;2023-02-20T11:38:58;99874.56;;;18.42;25.42
7668;BME280;3876;42.204;24.686;2023-02-20T11:41:28;99877.44;;;18.38;26.15
7668;BME280;3876;42.204;24.686;2023-02-20T11:44:16;99880.28;;;18.64;25.57
7668;BME280;3876;42.204;24.686;2023-02-20T11:46:44;99877.28;;;18.56;25.84
7668;BME280;3876;42.204;24.686;2023-02-20T11:49:24;99881.38;;;18.45;25.83
7668;BME280;3876;42.204;24.686;2023-02-20T11:51:51;99882.53;;;18.39;25.70
7668;BME280;3876;42.204;24.686;2023-02-20T11:54:21;99890.66;;;18.49;26.80
7668;BME280;3876;42.204;24.686;2023-02-20T11:56:54;99896.84;;;18.46;25.92
7668;BME280;3876;42.204;24.686;2023-02-20T11:59:27;99863.19;;;18.29;26.18
7668;BME280;3876;42.204;24.686;2023-02-20T12:01:55;99897.53;;;18.34;25.44
7668;BME280;3876;42.204;24.686;2023-02-20T12:04:35;99879.19;;;18.37;25.44
7668;BME280;3876;42.204;24.686;2023-02-20T12:07:16;99877.78;;;18.47;25.68
7668;BME280;3876;42.204;24.686;2023-02-20T12:09:47;99880.97;;;18.52;26.65
7668;BME280;3876;42.204;24.686;2023-02-20T12:12:16;99889.97;;;18.45;25.80
7668;BME280;3876;42.204;24.686;2023-02-20T12:14:48;99886.31;;;18.49;25.63
7668;BME280;3876;42.204;24.686;2023-02-20T12:17:24;99882.03;;;18.48;25.66
7668;BME280;3876;42.204;24.686;2023-02-20T12:20:01;99871.19;;;18.57;26.63
7668;BME280;3876;42.204;24.686;2023-02-20T12:22:33;99883.69;;;18.51;25.34
7668;BME280;3876;42.204;24.686;2023-02-20T12:25:15;99884.50;;;18.51;25.30
7668;BME280;3876;42.204;24.686;2023-02-20T12:27:58;99867.72;;;18.41;25.56
7668;BME280;3876;42.204;24.686;2023-02-20T12:30:42;99876.94;;;18.47;25.61
7668;BME280;3876;42.204;24.686;2023-02-20T12:36:18;99864.03;;;18.45;25.85
7668;BME280;3876;42.204;24.686;2023-02-20T12:38:56;99863.06;;;18.63;25.48
7668;BME280;3876;42.204;24.686;2023-02-20T12:41:30;99861.72;;;18.56;25.61
7668;BME280;3876;42.204;24.686;2023-02-20T12:44:09;99858.03;;;18.60;26.14
7668;BME280;3876;42.204;24.686;2023-02-20T12:46:43;99862.38;;;18.44;26.45
7668;BME280;3876;42.204;24.686;2023-02-20T12:49:35;99865.88;;;18.43;25.83
7668;BME280;3876;42.204;24.686;2023-02-20T12:52:31;99862.53;;;18.41;26.18
7668;BME280;3876;42.204;24.686;2023-02-20T12:55:08;99867.72;;;18.41;26.44
7668;BME280;3876;42.204;24.686;2023-02-20T12:57:48;99865.31;;;18.38;26.15
7668;BME280;3876;42.204;24.686;2023-02-20T13:00:25;99863.38;;;18.42;26.19
7668;BME280;3876;42.204;24.686;2023-02-20T13:03:01;99848.63;;;18.42;25.90
7668;BME280;3876;42.204;24.686;2023-02-20T13:05:34;99862.03;;;18.34;26.36
7668;BME280;3876;42.204;24.686;2023-02-20T13:08:08;99860.00;;;18.40;26.42
7668;BME280;3876;42.204;24.686;2023-02-20T13:10:46;99855.78;;;18.54;26.64
7668;BME280;3876;42.204;24.686;2023-02-20T13:13:15;99865.19;;;18.40;26.04
7668;BME280;3876;42.204;24.686;2023-02-20T13:15:49;99846.88;;;18.27;26.21
7668;BME280;3876;42.204;24.686;2023-02-20T13:18:24;99846.78;;;18.28;26.50
7668;BME280;3876;42.204;24.686;2023-02-20T13:20:56;99845.19;;;18.26;26.23
7668;BME280;3876;42.204;24.686;2023-02-20T13:23:29;99856.69;;;18.22;25.93
7668;BME280;3876;42.204;24.686;2023-02-20T13:25:56;99860.00;;;18.24;25.84
7668;BME280;3876;42.204;24.686;2023-02-20T13:28:39;99861.03;;;18.21;25.95
7668;BME280;3876;42.204;24.686;2023-02-20T13:31:21;99863.19;;;18.29;26.15
7668;BME280;3876;42.204;24.686;2023-02-20T13:33:50;99855.56;;;18.26;25.78
7668;BME280;3876;42.204;24.686;2023-02-20T13:36:37;99866.22;;;18.37;25.86
7668;BME280;3876;42.204;24.686;2023-02-20T13:39:35;99875.00;;;18.34;25.80
7668;BME280;3876;42.204;24.686;2023-02-20T13:42:03;99824.09;;;18.01;25.34
7668;BME280;3876;42.204;24.686;2023-02-20T13:44:49;99875.41;;;18.27;25.17
7668;BME280;3876;42.204;24.686;2023-02-20T13:47:35;99871.91;;;18.12;24.99
7668;BME280;3876;42.204;24.686;2023-02-20T13:50:32;99883.88;;;18.15;25.01
7668;BME280;3876;42.204;24.686;2023-02-20T13:53:01;99890.72;;;18.16;24.43
7668;BME280;3876;42.204;24.686;2023-02-20T13:55:31;99891.81;;;18.12;24.78
7668;BME280;3876;42.204;24.686;2023-02-20T13:58:07;99882.34;;;18.11;25.16
7668;BME280;3876;42.204;24.686;2023-02-20T14:00:45;99881.44;;;18.12;25.72
7668;BME280;3876;42.204;24.686;2023-02-20T14:03:17;99893.19;;;18.19;25.44
7668;BME280;3876;42.204;24.686;2023-02-20T14:05:44;99887.53;;;18.11;25.33
7668;BME280;3876;42.204;24.686;2023-02-20T14:08:16;99890.28;;;18.08;24.54
7668;BME280;3876;42.204;24.686;2023-02-20T14:10:44;99888.19;;;17.99;25.04
7668;BME280;3876;42.204;24.686;2023-02-20T14:13:17;99888.78;;;18.04;25.53
7668;BME280;3876;42.204;24.686;2023-02-20T14:15:49;99892.16;;;18.06;25.32
7668;BME280;3876;42.204;24.686;2023-02-20T14:18:18;99881.59;;;17.93;24.63
7668;BME280;3876;42.204;24.686;2023-02-20T14:20:47;99892.31;;;18.03;25.90
7668;BME280;3876;42.204;24.686;2023-02-20T14:23:22;99898.25;;;18.05;26.16
7668;BME280;3876;42.204;24.686;2023-02-20T14:25:55;99911.38;;;18.02;27.10
7668;BME280;3876;42.204;24.686;2023-02-20T14:28:22;99907.88;;;18.03;26.82
7668;BME280;3876;42.204;24.686;2023-02-20T14:31:05;99899.31;;;18.01;26.74
7668;BME280;3876;42.204;24.686;2023-02-20T14:33:33;99915.22;;;17.95;26.41
7668;BME280;3876;42.204;24.686;2023-02-20T14:36:20;99897.75;;;17.81;26.35
7668;BME280;3876;42.204;24.686;2023-02-20T14:39:03;99905.31;;;17.86;25.38
7668;BME280;3876;42.204;24.686;2023-02-20T14:41:32;99890.91;;;17.80;25.29
7668;BME280;3876;42.204;24.686;2023-02-20T14:44:01;99907.59;;;17.74;25.82
7668;BME280;3876;42.204;24.686;2023-02-20T14:46:31;99903.00;;;17.64;25.82
7668;BME280;3876;42.204;24.686;2023-02-20T14:49:04;99885.13;;;17.58;25.94
7668;BME280;3876;42.204;24.686;2023-02-20T14:51:31;99884.44;;;17.54;26.43
7668;BME280;3876;42.204;24.686;2023-02-20T14:54:00;99891.16;;;17.58;26.51
7668;BME280;3876;42.204;24.686;2023-02-20T14:56:28;99887.94;;;17.53;24.85
7668;BME280;3876;42.204;24.686;2023-02-20T15:02:21;99900.75;;;17.39;25.71
7668;BME280;3876;42.204;24.686;2023-02-20T15:04:51;99896.94;;;17.29;26.16
7668;BME280;3876;42.204;24.686;2023-02-20T15:07:20;99910.44;;;17.36;26.61
7668;BME280;3876;42.204;24.686;2023-02-20T15:09:50;99921.94;;;17.30;26.58
7668;BME280;3876;42.204;24.686;2023-02-20T15:12:20;99928.72;;;17.32;27.09
7668;BME280;3876;42.204;24.686;2023-02-20T15:14:53;99925.91;;;17.20;27.55
7668;BME280;3876;42.204;24.686;2023-02-20T15:17:26;99938.25;;;17.15;27.07
7668;BME280;3876;42.204;24.686;2023-02-20T15:19:53;99936.72;;;17.11;26.30
7668;BME280;3876;42.204;24.686;2023-02-20T15:22:27;99938.31;;;16.96;24.96
7668;BME280;3876;42.204;24.686;2023-02-20T15:25:11;99945.16;;;16.78;24.85
7668;BME280;3876;42.204;24.686;2023-02-20T15:27:38;99946.78;;;16.62;25.32
7668;BME280;3876;42.204;24.686;2023-02-20T15:30:09;99952.72;;;16.64;25.82
7668;BME280;3876;42.204;24.686;2023-02-20T15:32:39;99949.91;;;16.50;26.32
7668;BME280;3876;42.204;24.686;2023-02-20T15:35:13;99953.81;;;16.40;26.68
7668;BME280;3876;42.204;24.686;2023-02-20T15:37:42;99965.63;;;16.27;27.37
7668;BME280;3876;42.204;24.686;2023-02-20T15:42:46;99959.03;;;16.20;28.41
7668;BME280;3876;42.204;24.686;2023-02-20T15:45:14;99965.25;;;16.16;28.32
7668;BME280;3876;42.204;24.686;2023-02-20T15:47:43;99962.44;;;16.02;29.05
7668;BME280;3876;42.204;24.686;2023-02-20T15:50:10;99966.19;;;15.95;29.30
7668;BME280;3876;42.204;24.686;2023-02-20T15:52:37;99966.34;;;15.92;29.47
7668;BME280;3876;42.204;24.686;2023-02-20T15:55:04;99972.16;;;15.77;29.46
7668;BME280;3876;42.204;24.686;2023-02-20T15:57:31;99979.78;;;15.59;29.32
7668;BME280;3876;42.204;24.686;2023-02-20T15:59:58;99981.00;;;15.51;28.96
7668;BME280;3876;42.204;24.686;2023-02-20T16:02:25;99973.03;;;15.55;29.54
7668;BME280;3876;42.204;24.686;2023-02-20T16:04:54;99968.84;;;15.31;29.28
7668;BME280;3876;42.204;24.686;2023-02-20T16:07:21;99974.38;;;15.22;29.57
7668;BME280;3876;42.204;24.686;2023-02-20T16:09:48;99984.06;;;15.17;29.65
7668;BME280;3876;42.204;24.686;2023-02-20T16:12:18;99988.56;;;15.12;29.97
7668;BME280;3876;42.204;24.686;2023-02-20T16:14:47;99998.09;;;15.10;30.37
7668;BME280;3876;42.204;24.686;2023-02-20T16:17:22;100014.50;;;15.09;30.62
7668;BME280;3876;42.204;24.686;2023-02-20T16:19:50;100021.69;;;15.01;30.70
7668;BME280;3876;42.204;24.686;2023-02-20T16:22:21;100035.16;;;15.09;31.39
7668;BME280;3876;42.204;24.686;2023-02-20T16:24:48;100021.47;;;15.07;31.49
7668;BME280;3876;42.204;24.686;2023-02-20T16:27:18;100030.59;;;15.15;30.89
7668;BME280;3876;42.204;24.686;2023-02-20T16:29:47;100028.78;;;14.96;30.61
7668;BME280;3876;42.204;24.686;2023-02-20T16:32:19;100023.94;;;14.87;30.59
7668;BME280;3876;42.204;24.686;2023-02-20T16:34:47;100023.66;;;14.73;31.08
7668;BME280;3876;42.204;24.686;2023-02-20T16:37:14;100027.81;;;14.53;31.42
7668;BME280;3876;42.204;24.686;2023-02-20T16:39:43;100012.81;;;14.40;31.01
7668;BME280;3876;42.204;24.686;2023-02-20T16:42:18;100032.13;;;14.53;31.26
7668;BME280;3876;42.204;24.686;2023-02-20T16:44:46;100041.56;;;14.54;31.32
7668;BME280;3876;42.204;24.686;2023-02-20T16:47:16;100050.06;;;14.56;31.66
7668;BME280;3876;42.204;24.686;2023-02-20T16:49:43;100042.97;;;14.61;31.93
7668;BME280;3876;42.204;24.686;2023-02-20T16:52:12;100054.97;;;14.63;32.30
7668;BME280;3876;42.204;24.686;2023-02-20T16:54:45;100054.13;;;14.63;32.35
7668;BME280;3876;42.204;24.686;2023-02-20T16:57:14;100047.22;;;14.63;32.92
7668;BME280;3876;42.204;24.686;2023-02-20T16:59:41;100027.56;;;14.36;33.41
7668;BME280;3876;42.204;24.686;2023-02-20T17:02:14;100053.31;;;14.38;33.92
7668;BME280;3876;42.204;24.686;2023-02-20T17:04:41;100065.94;;;14.19;34.90
7668;BME280;3876;42.204;24.686;2023-02-20T17:07:08;100069.47;;;13.92;35.59
7668;BME280;3876;42.204;24.686;2023-02-20T17:09:35;100071.50;;;13.82;35.71
7668;BME280;3876;42.204;24.686;2023-02-20T17:12:04;100056.72;;;13.61;36.31
7668;BME280;3876;42.204;24.686;2023-02-20T17:14:31;100057.47;;;13.64;36.46
7668;BME280;3876;42.204;24.686;2023-02-20T17:16:57;100061.78;;;13.64;36.94
7668;BME280;3876;42.204;24.686;2023-02-20T17:19:24;100057.53;;;13.63;36.40
7668;BME280;3876;42.204;24.686;2023-02-20T17:21:52;100054.13;;;13.62;36.93
7668;BME280;3876;42.204;24.686;2023-02-20T17:24:18;100055.97;;;13.57;37.30
7668;BME280;3876;42.204;24.686;2023-02-20T17:26:45;100047.66;;;13.49;37.27
7668;BME280;3876;42.204;24.686;2023-02-20T17:29:14;100045.97;;;13.48;37.19
7668;BME280;3876;42.204;24.686;2023-02-20T17:31:41;100056.38;;;13.45;37.52
7668;BME280;3876;42.204;24.686;2023-02-20T17:34:08;100059.91;;;13.41;37.72
7668;BME280;3876;42.204;24.686;2023-02-20T17:36:34;100065.53;;;13.28;38.50
7668;BME280;3876;42.204;24.686;2023-02-20T17:39:01;100060.06;;;13.09;39.60
7668;BME280;3876;42.204;24.686;2023-02-20T17:41:28;100048.38;;;12.97;40.08
7668;BME280;3876;42.204;24.686;2023-02-20T17:43:55;100049.22;;;12.98;40.85
7668;BME280;3876;42.204;24.686;2023-02-20T17:46:23;100041.72;;;12.90;41.17
7668;BME280;3876;42.204;24.686;2023-02-20T17:48:50;100047.72;;;12.91;41.75
7668;BME280;3876;42.204;24.686;2023-02-20T17:51:17;100038.56;;;12.81;42.73
7668;BME280;3876;42.204;24.686;2023-02-20T17:53:45;100043.69;;;12.82;42.83
7668;BME280;3876;42.204;24.686;2023-02-20T17:56:13;100039.34;;;12.83;42.85
7668;BME280;3876;42.204;24.686;2023-02-20T17:58:42;100050.50;;;12.83;43.71
7668;BME280;3876;42.204;24.686;2023-02-20T18:01:11;100055.81;;;12.77;43.63
7668;BME280;3876;42.204;24.686;2023-02-20T18:03:39;100041.50;;;12.69;43.65
7668;BME280;3876;42.204;24.686;2023-02-20T18:06:06;100054.28;;;12.72;44.03
7668;BME280;3876;42.204;24.686;2023-02-20T18:08:33;100054.53;;;12.62;44.95
7668;BME280;3876;42.204;24.686;2023-02-20T18:11:00;100057.44;;;12.50;45.45
7668;BME280;3876;42.204;24.686;2023-02-20T18:13:27;100055.03;;;12.44;46.03
7668;BME280;3876;42.204;24.686;2023-02-20T18:15:56;100054.25;;;12.42;46.03
7668;BME280;3876;42.204;24.686;2023-02-20T18:18:23;100056.94;;;12.38;46.11
7668;BME280;3876;42.204;24.686;2023-02-20T18:20:51;100060.44;;;12.35;46.61
7668;BME280;3876;42.204;24.686;2023-02-20T18:23:18;100063.16;;;12.29;46.86
7668;BME280;3876;42.204;24.686;2023-02-20T18:25:45;100054.88;;;12.18;47.40
7668;BME280;3876;42.204;24.686;2023-02-20T18:28:11;100035.75;;;11.96;47.63
7668;BME280;3876;42.204;24.686;2023-02-20T18:30:38;100053.66;;;11.99;47.91
7668;BME280;3876;42.204;24.686;2023-02-20T18:33:06;100041.97;;;11.89;47.82
7668;BME280;3876;42.204;24.686;2023-02-20T18:35:34;100050.72;;;11.80;48.26
7668;BME280;3876;42.204;24.686;2023-02-20T18:38:02;100044.16;;;11.69;48.58
7668;BME280;3876;42.204;24.686;2023-02-20T18:40:29;100046.03;;;11.60;48.94
7668;BME280;3876;42.204;24.686;2023-02-20T18:42:56;100046.03;;;11.60;49.30
7668;BME280;3876;42.204;24.686;2023-02-20T18:45:22;100031.66;;;11.53;49.92
7668;BME280;3876;42.204;24.686;2023-02-20T18:47:50;100058.72;;;11.68;49.75
7668;BME280;3876;42.204;24.686;2023-02-20T18:50:17;100050.94;;;11.73;49.78
7668;BME280;3876;42.204;24.686;2023-02-20T18:52:45;100056.00;;;11.76;49.46
7668;BME280;3876;42.204;24.686;2023-02-20T18:55:14;100042.25;;;11.77;49.61
7668;BME280;3876;42.204;24.686;2023-02-20T18:57:45;100037.16;;;11.75;49.70
7668;BME280;3876;42.204;24.686;2023-02-20T19:00:16;100028.63;;;11.75;49.80
7668;BME280;3876;42.204;24.686;2023-02-20T19:02:43;100038.09;;;11.73;49.81
7668;BME280;3876;42.204;24.686;2023-02-20T19:05:10;100032.06;;;11.74;49.64
7668;BME280;3876;42.204;24.686;2023-02-20T19:07:40;100040.59;;;11.76;49.81
7668;BME280;3876;42.204;24.686;2023-02-20T19:10:08;100038.84;;;11.76;49.76
7668;BME280;3876;42.204;24.686;2023-02-20T19:12:36;100033.81;;;11.72;50.05
7668;BME280;3876;42.204;24.686;2023-02-20T19:15:04;100028.81;;;11.66;50.07
7668;BME280;3876;42.204;24.686;2023-02-20T19:17:34;100029.75;;;11.62;50.87
7668;BME280;3876;42.204;24.686;2023-02-20T19:20:02;100025.56;;;11.59;50.50
7668;BME280;3876;42.204;24.686;2023-02-20T19:22:30;100028.97;;;11.59;50.67
7668;BME280;3876;42.204;24.686;2023-02-20T19:24:57;100031.63;;;11.55;51.15
7668;BME280;3876;42.204;24.686;2023-02-20T19:27:25;100012.41;;;11.36;50.97
7668;BME280;3876;42.204;24.686;2023-02-20T19:29:54;100031.38;;;11.30;51.73
7668;BME280;3876;42.204;24.686;2023-02-20T19:32:20;100027.25;;;11.23;51.96
7668;BME280;3876;42.204;24.686;2023-02-20T19:34:48;100027.41;;;11.16;52.21
7668;BME280;3876;42.204;24.686;2023-02-20T19:37:15;100024.91;;;11.13;52.34
7668;BME280;3876;42.204;24.686;2023-02-20T19:39:43;100012.94;;;11.13;52.14
7668;BME280;3876;42.204;24.686;2023-02-20T19:42:10;100007.88;;;11.10;53.00
7668;BME280;3876;42.204;24.686;2023-02-20T19:44:38;99997.75;;;11.04;52.87
7668;BME280;3876;42.204;24.686;2023-02-20T19:47:06;100000.19;;;11.08;53.45
7668;BME280;3876;42.204;24.686;2023-02-20T19:49:33;100003.63;;;11.09;53.29
7668;BME280;3876;42.204;24.686;2023-02-20T19:52:03;100014.63;;;11.14;53.15
7668;BME280;3876;42.204;24.686;2023-02-20T19:54:30;100015.50;;;11.13;53.09
7668;BME280;3876;42.204;24.686;2023-02-20T19:56:59;100010.34;;;11.15;52.84
7668;BME280;3876;42.204;24.686;2023-02-20T19:59:28;100007.03;;;11.10;53.42
7668;BME280;3876;42.204;24.686;2023-02-20T20:01:57;100016.44;;;11.09;53.54
7668;BME280;3876;42.204;24.686;2023-02-20T20:04:30;99999.56;;;10.99;53.52
7668;BME280;3876;42.204;24.686;2023-02-20T20:06:59;99998.63;;;11.03;53.65
7668;BME280;3876;42.204;24.686;2023-02-20T20:09:27;100004.63;;;11.02;53.37
7668;BME280;3876;42.204;24.686;2023-02-20T20:11:54;99992.84;;;10.95;53.62
7668;BME280;3876;42.204;24.686;2023-02-20T20:14:20;99975.88;;;10.88;53.81
7668;BME280;3876;42.204;24.686;2023-02-20T20:16:49;99977.91;;;10.74;54.11
7668;BME280;3876;42.204;24.686;2023-02-20T20:19:16;99988.22;;;10.71;54.43
7668;BME280;3876;42.204;24.686;2023-02-20T20:21:47;99995.25;;;10.63;54.96
7668;BME280;3876;42.204;24.686;2023-02-20T20:24:15;99987.84;;;10.47;55.30
7668;BME280;3876;42.204;24.686;2023-02-20T20:26:42;99973.53;;;10.37;55.33
7668;BME280;3876;42.204;24.686;2023-02-20T20:29:08;99964.91;;;10.41;54.95
7668;BME280;3876;42.204;24.686;2023-02-20T20:31:37;99961.41;;;10.45;55.03
7668;BME280;3876;42.204;24.686;2023-02-20T20:34:05;99962.91;;;10.56;54.70
7668;BME280;3876;42.204;24.686;2023-02-20T20:36:32;99967.25;;;10.52;54.97
7668;BME280;3876;42.204;24.686;2023-02-20T20:39:01;99951.91;;;10.50;54.86
7668;BME280;3876;42.204;24.686;2023-02-20T20:41:28;99946.91;;;10.44;54.67
7668;BME280;3876;42.204;24.686;2023-02-20T20:43:54;99966.41;;;10.51;54.69
7668;BME280;3876;42.204;24.686;2023-02-20T20:46:29;99944.19;;;10.52;54.16
7668;BME280;3876;42.204;24.686;2023-02-20T20:48:57;99939.88;;;10.54;54.74
7668;BME280;3876;42.204;24.686;2023-02-20T20:51:24;99945.00;;;10.54;54.35
7668;BME280;3876;42.204;24.686;2023-02-20T20:53:50;99940.78;;;10.51;54.48
7668;BME280;3876;42.204;24.686;2023-02-20T20:56:19;99940.84;;;10.48;54.95
7668;BME280;3876;42.204;24.686;2023-02-20T20:58:46;99934.09;;;10.44;54.76
7668;BME280;3876;42.204;24.686;2023-02-20T21:01:15;99941.75;;;10.46;54.68
7668;BME280;3876;42.204;24.686;2023-02-20T21:03:42;99938.28;;;10.48;55.08
7668;BME280;3876;42.204;24.686;2023-02-20T21:06:09;99932.38;;;10.46;54.81
7668;BME280;3876;42.204;24.686;2023-02-20T21:08:35;99933.16;;;10.50;54.62
7668;BME280;3876;42.204;24.686;2023-02-20T21:11:02;99933.16;;;10.48;54.09
7668;BME280;3876;42.204;24.686;2023-02-20T21:13:30;99922.19;;;10.43;54.35
7668;BME280;3876;42.204;24.686;2023-02-20T21:15:57;99927.31;;;10.43;54.43
7668;BME280;3876;42.204;24.686;2023-02-20T21:18:24;99912.09;;;10.34;54.30
7668;BME280;3876;42.204;24.686;2023-02-20T21:20:51;99919.72;;;10.37;54.25
7668;BME280;3876;42.204;24.686;2023-02-20T21:23:17;99918.19;;;10.30;54.00
7668;BME280;3876;42.204;24.686;2023-02-20T21:25:44;99908.94;;;10.23;53.84
7668;BME280;3876;42.204;24.686;2023-02-20T21:28:11;99892.69;;;10.23;54.32
7668;BME280;3876;42.204;24.686;2023-02-20T21:30:39;99893.56;;;10.23;54.22
7668;BME280;3876;42.204;24.686;2023-02-20T21:33:06;99898.69;;;10.23;53.86
7668;BME280;3876;42.204;24.686;2023-02-20T21:35:33;99897.75;;;10.26;53.36
7668;BME280;3876;42.204;24.686;2023-02-20T21:38:00;99868.06;;;10.17;53.18
7668;BME280;3876;42.204;24.686;2023-02-20T21:40:26;99879.75;;;10.30;53.46
7668;BME280;3876;42.204;24.686;2023-02-20T21:42:53;99884.81;;;10.33;53.26
7668;BME280;3876;42.204;24.686;2023-02-20T21:45:39;99885.53;;;10.38;53.02
7668;BME280;3876;42.204;24.686;2023-02-20T21:48:05;99896.78;;;10.31;52.54
7668;BME280;3876;42.204;24.686;2023-02-20T21:50:32;99900.47;;;10.18;53.05
7668;BME280;3876;42.204;24.686;2023-02-20T21:52:59;99884.34;;;10.12;53.00
7668;BME280;3876;42.204;24.686;2023-02-20T21:55:27;99890.38;;;10.09;53.38
7668;BME280;3876;42.204;24.686;2023-02-20T21:57:54;99881.78;;;10.13;53.13
7668;BME280;3876;42.204;24.686;2023-02-20T22:00:25;99876.66;;;10.13;52.85
7668;BME280;3876;42.204;24.686;2023-02-20T22:02:52;99880.88;;;10.16;53.12
7668;BME280;3876;42.204;24.686;2023-02-20T22:05:18;99871.59;;;10.09;52.50
7668;BME280;3876;42.204;24.686;2023-02-20T22:07:44;99873.44;;;10.02;52.79
7668;BME280;3876;42.204;24.686;2023-02-20T22:10:28;99876.19;;;9.93;53.45
7668;BME280;3876;42.204;24.686;2023-02-20T22:13:12;99857.59;;;9.85;53.20
7668;BME280;3876;42.204;24.686;2023-02-20T22:15:56;99852.03;;;9.65;54.29
7668;BME280;3876;42.204;24.686;2023-02-20T22:18:42;99851.41;;;9.52;54.62
7668;BME280;3876;42.204;24.686;2023-02-20T22:21:26;99838.84;;;9.40;54.82
7668;BME280;3876;42.204;24.686;2023-02-20T22:24:11;99823.06;;;9.17;55.62
7668;BME280;3876;42.204;24.686;2023-02-20T22:26:55;99813.69;;;9.17;55.99
7668;BME280;3876;42.204;24.686;2023-02-20T22:29:39;99811.44;;;8.99;56.45
7668;BME280;3876;42.204;24.686;2023-02-20T22:32:23;99826.19;;;8.83;56.89
7668;BME280;3876;42.204;24.686;2023-02-20T22:35:10;99819.53;;;8.75;57.13
7668;BME280;3876;42.204;24.686;2023-02-20T22:37:54;99812.75;;;8.71;57.49
7668;BME280;3876;42.204;24.686;2023-02-20T22:40:38;99779.59;;;8.66;57.29
7668;BME280;3876;42.204;24.686;2023-02-20T22:43:23;99804.19;;;8.75;56.75
7668;BME280;3876;42.204;24.686;2023-02-20T22:46:07;99800.56;;;8.88;56.84